createdAt,value
2019-01-21T00:00:08.138Z,-1.80
2019-01-21T00:02:36.007Z,-1.80
2019-01-21T00:05:04.719Z,-1.80
2019-01-21T00:07:32.559Z,-1.70
2019-01-21T00:10:00.486Z,-1.70
2019-01-21T00:12:28.286Z,-1.80
2019-01-21T00:14:56.174Z,-1.80
2019-01-21T00:17:24.035Z,-1.90
2019-01-21T00:19:51.911Z,-2.00
2019-01-21T00:22:20.130Z,-2.00
2019-01-21T00:24:48.245Z,-2.00
2019-01-21T00:27:16.111Z,-2.00
2019-01-21T00:29:44.013Z,-2.00
2019-01-21T00:32:11.927Z,-1.90
2019-01-21T00:34:39.734Z,-1.80
2019-01-21T00:37:07.581Z,-1.80
2019-01-21T00:39:37.215Z,-1.80
2019-01-21T00:42:05.447Z,-1.70
2019-01-21T00:44:33.591Z,-1.70
2019-01-21T00:47:01.402Z,-1.70
2019-01-21T00:49:29.286Z,-1.70
2019-01-21T00:51:57.134Z,-1.70
2019-01-21T00:54:24.942Z,-1.60
2019-01-21T00:56:53.035Z,-1.70
2019-01-21T00:59:21.170Z,-1.70
2019-01-21T01:01:49.023Z,-1.70
2019-01-21T01:04:16.907Z,-1.80
2019-01-21T01:06:44.790Z,-1.80
2019-01-21T01:09:12.617Z,-1.80
2019-01-21T01:11:40.513Z,-1.80
2019-01-21T01:14:08.352Z,-1.70
2019-01-21T01:16:36.254Z,-1.80
2019-01-21T01:19:04.093Z,-1.70
2019-01-21T01:21:31.965Z,-1.70
2019-01-21T01:24:00.400Z,-1.70
2019-01-21T01:26:28.298Z,-1.70
2019-01-21T01:28:56.166Z,-1.80
2019-01-21T01:31:24.059Z,-1.90
2019-01-21T01:33:51.905Z,-1.80
2019-01-21T01:36:19.794Z,-1.80
2019-01-21T01:38:47.643Z,-1.80
2019-01-21T01:41:15.538Z,-1.70
2019-01-21T01:43:43.549Z,-1.70
2019-01-21T01:46:11.366Z,-1.70
2019-01-21T01:48:39.211Z,-1.80
2019-01-21T01:51:07.103Z,-1.80
2019-01-21T01:53:34.942Z,-1.80
2019-01-21T01:56:02.911Z,-1.80
2019-01-21T01:58:30.783Z,-1.80
2019-01-21T02:00:58.675Z,-1.80
2019-01-21T02:03:26.495Z,-1.80
2019-01-21T02:05:54.402Z,-1.80
2019-01-21T02:08:22.260Z,-1.90
2019-01-21T02:10:50.216Z,-1.90
2019-01-21T02:13:18.318Z,-1.90
2019-01-21T02:15:46.178Z,-1.90
2019-01-21T02:18:14.041Z,-2.00
2019-01-21T02:20:44.012Z,-2.10
2019-01-21T02:23:15.047Z,-2.10
2019-01-21T02:25:50.535Z,-2.20
2019-01-21T02:28:23.565Z,-2.30
2019-01-21T02:31:03.420Z,-2.20
2019-01-21T02:33:45.055Z,-2.30
2019-01-21T02:36:17.389Z,-2.30
2019-01-21T02:39:20.178Z,-2.20
2019-01-21T02:41:50.094Z,-2.30
2019-01-21T02:44:28.220Z,-2.30
2019-01-21T02:47:14.999Z,-2.20
2019-01-21T02:49:54.536Z,-2.20
2019-01-21T02:52:36.536Z,-2.20
2019-01-21T02:55:15.696Z,-2.20
2019-01-21T02:57:50.570Z,-2.30
2019-01-21T03:00:36.961Z,-2.30
2019-01-21T03:03:39.182Z,-2.30
2019-01-21T03:06:21.969Z,-2.40
2019-01-21T03:09:02.670Z,-2.40
2019-01-21T03:11:49.256Z,-2.40
2019-01-21T03:14:24.293Z,-2.50
2019-01-21T03:17:23.900Z,-2.40
2019-01-21T03:20:10.961Z,-2.40
2019-01-21T03:22:46.750Z,-2.30
2019-01-21T03:25:19.019Z,-2.30
2019-01-21T03:28:12.100Z,-2.20
2019-01-21T03:30:56.114Z,-2.20
2019-01-21T03:33:39.021Z,-2.20
2019-01-21T03:36:15.583Z,-2.10
2019-01-21T03:39:06.077Z,-2.10
2019-01-21T03:41:56.005Z,-2.20
2019-01-21T03:44:30.604Z,-2.30
2019-01-21T03:47:08.935Z,-2.30
2019-01-21T03:49:39.902Z,-2.40
2019-01-21T03:52:25.267Z,-2.40
2019-01-21T03:54:55.099Z,-2.40
2019-01-21T03:57:28.988Z,-2.40
2019-01-21T04:00:15.334Z,-2.40
2019-01-21T04:02:57.611Z,-2.40
2019-01-21T04:05:29.316Z,-2.40
2019-01-21T04:08:10.839Z,-2.40
2019-01-21T04:10:48.286Z,-2.40
2019-01-21T04:13:41.594Z,-2.40
2019-01-21T04:16:31.697Z,-2.40
2019-01-21T04:19:07.948Z,-2.40
2019-01-21T04:21:41.038Z,-2.40
2019-01-21T04:24:28.582Z,-2.40
2019-01-21T04:27:00.068Z,-2.40
2019-01-21T04:29:41.355Z,-2.40
2019-01-21T04:32:22.979Z,-2.30
2019-01-21T04:35:08.027Z,-2.30
2019-01-21T04:37:51.899Z,-2.30
2019-01-21T04:40:23.412Z,-2.40
2019-01-21T04:43:08.418Z,-2.40
2019-01-21T04:45:43.370Z,-2.40
2019-01-21T04:48:16.818Z,-2.40
2019-01-21T04:50:53.835Z,-2.40
2019-01-21T04:53:27.234Z,-2.40
2019-01-21T04:56:18.181Z,-2.40
2019-01-21T04:59:04.247Z,-2.40
2019-01-21T05:01:50.094Z,-2.40
2019-01-21T05:04:27.834Z,-2.40
2019-01-21T05:07:14.959Z,-2.50
2019-01-21T05:09:53.671Z,-2.40
2019-01-21T05:12:45.571Z,-2.40
2019-01-21T05:15:32.946Z,-2.40
2019-01-21T05:18:26.242Z,-2.50
2019-01-21T05:21:10.024Z,-2.50
2019-01-21T05:24:09.128Z,-2.50
2019-01-21T05:27:00.002Z,-2.40
2019-01-21T05:29:53.211Z,-2.50
2019-01-21T05:32:25.636Z,-2.50
2019-01-21T05:35:12.822Z,-2.60
2019-01-21T05:38:00.006Z,-2.50
2019-01-21T05:40:40.806Z,-2.50
2019-01-21T05:43:26.754Z,-2.50
2019-01-21T05:46:08.975Z,-2.50
2019-01-21T05:48:48.957Z,-2.50
2019-01-21T05:51:29.234Z,-2.40
2019-01-21T05:54:16.345Z,-2.30
2019-01-21T05:57:02.450Z,-2.30
2019-01-21T05:59:36.642Z,-2.30
2019-01-21T06:02:22.895Z,-2.30
2019-01-21T06:04:54.930Z,-2.40
2019-01-21T06:07:41.055Z,-2.50
2019-01-21T06:10:31.719Z,-2.50
2019-01-21T06:13:18.817Z,-2.50
2019-01-21T06:15:53.732Z,-2.50
2019-01-21T06:18:46.632Z,-2.40
2019-01-21T06:21:45.939Z,-2.50
2019-01-21T06:24:42.454Z,-2.50
2019-01-21T06:27:28.282Z,-2.60
2019-01-21T06:30:09.926Z,-2.70
2019-01-21T06:32:49.961Z,-2.70
2019-01-21T06:35:39.886Z,-2.70
2019-01-21T06:38:33.135Z,-2.70
2019-01-21T06:41:27.115Z,-2.80
2019-01-21T06:44:15.546Z,-2.80
2019-01-21T06:47:00.282Z,-2.80
2019-01-21T06:49:50.710Z,-2.70
2019-01-21T06:52:53.336Z,-2.60
2019-01-21T06:55:32.003Z,-2.50
2019-01-21T06:58:06.529Z,-2.50
2019-01-21T07:00:59.799Z,-2.50
2019-01-21T07:03:59.412Z,-2.40
2019-01-21T07:09:38.310Z,-2.40
2019-01-21T07:12:24.602Z,-2.30
2019-01-21T07:15:20.669Z,-2.30
2019-01-21T07:18:09.045Z,-2.30
2019-01-21T07:20:56.142Z,-2.20
2019-01-21T07:23:28.303Z,-2.20
2019-01-21T07:26:01.138Z,-2.20
2019-01-21T07:28:51.081Z,-2.20
2019-01-21T07:31:33.803Z,-2.20
2019-01-21T07:34:05.648Z,-2.20
2019-01-21T07:36:38.230Z,-2.20
2019-01-21T07:39:14.495Z,-2.30
2019-01-21T07:41:47.390Z,-2.20
2019-01-21T07:44:36.757Z,-2.10
2019-01-21T07:47:21.718Z,-2.20
2019-01-21T07:50:15.013Z,-2.20
2019-01-21T07:53:00.928Z,-2.10
2019-01-21T07:55:51.881Z,-2.00
2019-01-21T07:58:47.899Z,-1.90
2019-01-21T08:01:24.414Z,-1.80
2019-01-21T08:04:10.218Z,-1.80
2019-01-21T08:06:45.346Z,-1.80
2019-01-21T08:09:19.540Z,-1.80
2019-01-21T08:12:09.695Z,-1.70
2019-01-21T08:14:41.359Z,-1.80
2019-01-21T08:17:27.431Z,-1.80
2019-01-21T08:20:20.367Z,-1.80
2019-01-21T08:23:02.031Z,-1.80
2019-01-21T08:26:01.569Z,-1.70
2019-01-21T08:28:33.781Z,-1.70
2019-01-21T08:31:27.011Z,-1.60
2019-01-21T08:34:20.101Z,-1.60
2019-01-21T08:36:53.090Z,-1.60
2019-01-21T08:39:38.505Z,-1.50
2019-01-21T08:42:24.331Z,-1.60
2019-01-21T08:45:00.239Z,-1.60
2019-01-21T08:47:47.381Z,-1.60
2019-01-21T08:50:17.809Z,-1.50
2019-01-21T08:53:17.204Z,-1.60
2019-01-21T08:55:58.026Z,-1.60
2019-01-21T08:58:32.577Z,-1.50
2019-01-21T09:01:19.649Z,-1.40
2019-01-21T09:03:53.824Z,-1.40
2019-01-21T09:06:24.731Z,-1.30
2019-01-21T09:09:14.675Z,-1.30
2019-01-21T09:12:03.013Z,-1.30
2019-01-21T09:14:41.205Z,-1.30
2019-01-21T09:17:15.543Z,-1.40
2019-01-21T09:19:57.087Z,-1.40
2019-01-21T09:22:43.190Z,-1.50
2019-01-21T09:25:30.286Z,-1.50
2019-01-21T09:28:05.078Z,-1.50
2019-01-21T09:30:52.251Z,-1.60
2019-01-21T09:33:54.841Z,-1.50
2019-01-21T09:36:27.255Z,-1.40
2019-01-21T09:39:01.566Z,-1.40
2019-01-21T09:41:35.522Z,-1.40
2019-01-21T09:44:08.922Z,-1.40
2019-01-21T09:46:46.114Z,-1.40
2019-01-21T09:49:13.301Z,-1.30
2019-01-21T09:51:41.883Z,-1.20
2019-01-21T09:54:10.090Z,-1.10
2019-01-21T09:56:38.163Z,-1.00
2019-01-21T09:59:05.960Z,-1.00
2019-01-21T10:01:33.886Z,-1.10
2019-01-21T10:04:02.107Z,-0.90
2019-01-21T10:06:34.878Z,-0.90
2019-01-21T10:09:07.890Z,-0.90
2019-01-21T10:11:53.034Z,-0.80
2019-01-21T10:14:38.810Z,-0.80
2019-01-21T10:17:41.076Z,-0.80
2019-01-21T10:20:43.283Z,-0.90
2019-01-21T10:23:24.504Z,-0.80
2019-01-21T10:25:58.082Z,-0.80
2019-01-21T10:28:36.083Z,-0.70
2019-01-21T10:31:09.620Z,-0.70
2019-01-21T10:34:08.885Z,-0.50
2019-01-21T10:36:49.079Z,-0.50
2019-01-21T10:39:34.882Z,-0.50
2019-01-21T10:42:18.994Z,-0.20
2019-01-21T10:44:51.774Z,-0.10
2019-01-21T10:47:22.308Z,0.00
2019-01-21T10:50:02.093Z,0.10
2019-01-21T10:52:52.651Z,0.20
2019-01-21T10:55:27.161Z,0.20
2019-01-21T10:58:20.522Z,0.10
2019-01-21T11:01:06.378Z,0.00
2019-01-21T11:03:59.779Z,-0.20
2019-01-21T11:06:49.626Z,-0.30
2019-01-21T11:09:29.860Z,-0.30
2019-01-21T11:12:17.024Z,-0.20
2019-01-21T11:14:53.541Z,-0.10
2019-01-21T11:17:43.479Z,-0.20
2019-01-21T11:20:18.055Z,-0.30
2019-01-21T11:23:01.149Z,-0.40
2019-01-21T11:25:42.809Z,-0.40
2019-01-21T11:28:13.901Z,-0.50
2019-01-21T11:30:54.554Z,-0.50
2019-01-21T11:33:44.635Z,-0.40
2019-01-21T11:36:46.995Z,-0.40
2019-01-21T11:39:20.063Z,-0.40
2019-01-21T11:42:09.968Z,-0.30
2019-01-21T11:44:59.807Z,-0.30
2019-01-21T11:47:34.290Z,-0.30
2019-01-21T11:50:10.432Z,-0.20
2019-01-21T11:52:58.400Z,-0.20
2019-01-21T11:55:57.707Z,-0.10
2019-01-21T11:58:48.466Z,-0.40
2019-01-21T12:01:44.399Z,-0.50
2019-01-21T12:04:49.873Z,-0.50
2019-01-21T12:07:28.479Z,-0.60
2019-01-21T12:10:30.673Z,-0.70
2019-01-21T12:13:04.138Z,-0.80
2019-01-21T12:15:38.831Z,-0.80
2019-01-21T12:18:25.122Z,-0.80
2019-01-21T12:21:11.214Z,-0.80
2019-01-21T12:23:41.595Z,-0.80
2019-01-21T12:26:25.577Z,-0.80
2019-01-21T12:28:58.761Z,-0.80
2019-01-21T12:31:31.358Z,-0.80
2019-01-21T12:34:06.980Z,-0.70
2019-01-21T12:36:50.767Z,-0.60
2019-01-21T12:39:22.600Z,-0.60
2019-01-21T12:41:53.928Z,-0.60
2019-01-21T12:44:47.329Z,-0.60
2019-01-21T12:47:19.167Z,-0.70
2019-01-21T12:50:03.770Z,-0.70
2019-01-21T12:52:40.058Z,-0.70
2019-01-21T12:55:18.955Z,-0.70
2019-01-21T12:58:04.738Z,-0.70
2019-01-21T13:00:51.059Z,-0.70
2019-01-21T13:03:32.483Z,-0.80
2019-01-21T13:06:19.584Z,-0.70
2019-01-21T13:08:58.095Z,-0.80
2019-01-21T13:11:35.850Z,-0.90
2019-01-21T13:14:10.191Z,-0.90
2019-01-21T13:16:44.272Z,-0.90
2019-01-21T13:19:46.795Z,-0.90
2019-01-21T13:22:33.954Z,-0.90
2019-01-21T13:25:15.533Z,-0.90
2019-01-21T13:27:50.570Z,-0.80
2019-01-21T13:30:37.659Z,-0.80
2019-01-21T13:33:19.091Z,-0.80
2019-01-21T13:36:06.085Z,-0.70
2019-01-21T13:38:45.451Z,-0.60
2019-01-21T13:41:22.141Z,-0.40
2019-01-21T13:44:09.253Z,-0.30
2019-01-21T13:46:43.434Z,-0.40
2019-01-21T13:49:20.345Z,-0.40
2019-01-21T13:52:07.562Z,-0.50
2019-01-21T13:54:53.452Z,-0.50
2019-01-21T13:57:40.535Z,-0.60
2019-01-21T14:00:18.872Z,-0.50
2019-01-21T14:03:06.184Z,-0.50
2019-01-21T14:05:43.051Z,-0.40
2019-01-21T14:08:13.719Z,-0.30
2019-01-21T14:11:12.967Z,-0.30
2019-01-21T14:14:06.081Z,-0.30
2019-01-21T14:16:53.611Z,-0.30
2019-01-21T14:19:27.202Z,-0.40
2019-01-21T14:22:27.852Z,-0.40
2019-01-21T14:25:30.094Z,-0.40
2019-01-21T14:28:15.978Z,-0.30
2019-01-21T14:31:03.080Z,-0.30
2019-01-21T14:34:08.551Z,-0.40
2019-01-21T14:36:47.679Z,-0.40
2019-01-21T14:39:40.763Z,-0.40
2019-01-21T14:42:27.912Z,-0.40
2019-01-21T14:45:14.088Z,-0.30
2019-01-21T14:48:00.122Z,-0.20
2019-01-21T14:50:41.290Z,-0.20
2019-01-21T14:53:22.467Z,-0.20
2019-01-21T14:55:55.437Z,-0.30
2019-01-21T14:58:29.797Z,-0.40
2019-01-21T15:01:12.544Z,-0.40
2019-01-21T15:03:47.464Z,-0.50
2019-01-21T15:06:19.687Z,-0.50
2019-01-21T15:08:55.070Z,-0.60
2019-01-21T15:12:00.681Z,-0.60
2019-01-21T15:14:36.779Z,-0.70
2019-01-21T15:17:35.890Z,-0.80
2019-01-21T15:20:13.210Z,-0.80
2019-01-21T15:23:02.794Z,-1.00
2019-01-21T15:25:53.048Z,-1.00
2019-01-21T15:28:28.326Z,-1.00
2019-01-21T15:31:07.088Z,-1.00
2019-01-21T15:33:39.793Z,-1.10
2019-01-21T15:36:26.351Z,-1.20
2019-01-21T15:39:06.689Z,-1.20
2019-01-21T15:41:52.715Z,-1.20
2019-01-21T15:44:27.037Z,-1.20
2019-01-21T15:47:08.716Z,-1.30
2019-01-21T15:49:38.682Z,-1.30
2019-01-21T15:52:12.952Z,-1.40
2019-01-21T15:55:00.422Z,-1.40
2019-01-21T15:57:45.950Z,-1.40
2019-01-21T16:00:21.146Z,-1.40
2019-01-21T16:02:56.314Z,-1.40
2019-01-21T16:05:42.094Z,-1.50
2019-01-21T16:08:18.814Z,-1.50
2019-01-21T16:10:55.643Z,-1.50
2019-01-21T16:13:41.171Z,-1.50
2019-01-21T16:16:15.581Z,-1.50
2019-01-21T16:18:48.954Z,-1.50
2019-01-21T16:21:33.994Z,-1.60
2019-01-21T16:24:19.021Z,-1.50
2019-01-21T16:27:12.166Z,-1.60
2019-01-21T16:29:42.737Z,-1.70
2019-01-21T16:32:39.152Z,-1.60
2019-01-21T16:35:26.283Z,-1.60
2019-01-21T16:38:08.874Z,-1.60
2019-01-21T16:40:59.218Z,-1.70
2019-01-21T16:43:27.343Z,-1.70
2019-01-21T16:45:55.198Z,-1.80
2019-01-21T16:48:23.267Z,-1.70
2019-01-21T16:50:51.065Z,-1.80
2019-01-21T16:53:19.167Z,-1.80
2019-01-21T16:55:46.948Z,-1.80
2019-01-21T16:58:14.902Z,-1.90
2019-01-21T17:00:42.673Z,-1.90
2019-01-21T17:03:10.519Z,-1.90
2019-01-21T17:05:38.294Z,-2.00
2019-01-21T17:08:06.193Z,-2.00
2019-01-21T17:10:39.173Z,-2.10
2019-01-21T17:13:03.735Z,-2.10
2019-01-21T17:15:31.557Z,-2.10
2019-01-21T17:17:59.371Z,-2.20
2019-01-21T17:20:27.151Z,-2.20
2019-01-21T17:22:54.979Z,-2.30
2019-01-21T17:25:22.842Z,-2.30
2019-01-21T17:27:50.611Z,-2.40
2019-01-21T17:30:18.494Z,-2.50
2019-01-21T17:32:46.269Z,-2.60
2019-01-21T17:35:14.227Z,-2.60
2019-01-21T17:37:42.017Z,-2.60
2019-01-21T17:40:11.015Z,-2.70
2019-01-21T17:42:38.802Z,-2.70
2019-01-21T17:45:08.603Z,-2.70
2019-01-21T17:47:36.423Z,-2.80
2019-01-21T17:50:04.798Z,-2.80
2019-01-21T17:52:32.577Z,-2.80
2019-01-21T17:55:00.469Z,-2.80
2019-01-21T17:57:28.495Z,-2.80
2019-01-21T17:59:56.302Z,-2.80
2019-01-21T18:02:24.080Z,-2.80
2019-01-21T18:04:51.923Z,-2.80
2019-01-21T18:07:19.833Z,-2.70
2019-01-21T18:09:47.750Z,-2.70
2019-01-21T18:12:15.521Z,-2.60
2019-01-21T18:14:43.347Z,-2.60
2019-01-21T18:17:11.118Z,-2.70
2019-01-21T18:19:39.006Z,-2.60
2019-01-21T18:22:06.836Z,-2.60
2019-01-21T18:24:34.650Z,-2.60
2019-01-21T18:27:02.427Z,-2.60
2019-01-21T18:29:30.280Z,-2.70
2019-01-21T18:31:58.105Z,-2.60
2019-01-21T18:34:25.921Z,-2.60
2019-01-21T18:36:53.821Z,-2.60
2019-01-21T18:39:21.642Z,-2.60
2019-01-21T18:41:49.423Z,-2.60
2019-01-21T18:44:17.242Z,-2.60
2019-01-21T18:46:45.110Z,-2.50
2019-01-21T18:49:13.011Z,-2.50
2019-01-21T18:51:46.511Z,-2.50
2019-01-21T18:54:10.394Z,-2.50
2019-01-21T18:56:38.478Z,-2.60
2019-01-21T18:59:06.331Z,-2.50
2019-01-21T19:01:34.168Z,-2.50
2019-01-21T19:04:02.175Z,-2.50
2019-01-21T19:06:29.942Z,-2.50
2019-01-21T19:08:57.798Z,-2.50
2019-01-21T19:11:25.587Z,-2.50
2019-01-21T19:13:53.564Z,-2.60
2019-01-21T19:16:21.405Z,-2.60
2019-01-21T19:18:49.181Z,-2.60
2019-01-21T19:21:17.006Z,-2.60
2019-01-21T19:23:44.871Z,-2.50
2019-01-21T19:26:12.784Z,-2.50
2019-01-21T19:28:40.595Z,-2.50
2019-01-21T19:31:08.468Z,-2.50
2019-01-21T19:33:36.237Z,-2.50
2019-01-21T19:36:04.244Z,-2.50
2019-01-21T19:38:32.010Z,-2.40
2019-01-21T19:41:00.184Z,-2.50
2019-01-21T19:43:27.962Z,-2.40
2019-01-21T19:45:55.846Z,-2.40
2019-01-21T19:48:23.732Z,-2.40
2019-01-21T19:50:51.651Z,-2.40
2019-01-21T19:53:19.727Z,-2.30
2019-01-21T19:55:47.544Z,-2.30
2019-01-21T19:58:15.577Z,-2.30
2019-01-21T20:00:43.708Z,-2.30
2019-01-21T20:03:11.469Z,-2.30
2019-01-21T20:05:39.375Z,-2.30
2019-01-21T20:08:07.173Z,-2.30
2019-01-21T20:10:35.070Z,-2.30
2019-01-21T20:13:03.174Z,-2.30
2019-01-21T20:15:31.003Z,-2.20
2019-01-21T20:17:58.854Z,-2.20
2019-01-21T20:20:28.260Z,-2.30
2019-01-21T20:22:57.675Z,-2.40
2019-01-21T20:25:26.137Z,-2.40
2019-01-21T20:27:53.913Z,-2.50
2019-01-21T20:30:21.947Z,-2.60
2019-01-21T20:32:50.011Z,-2.60
2019-01-21T20:35:17.907Z,-2.60
2019-01-21T20:37:45.682Z,-2.60
2019-01-21T20:40:17.883Z,-2.60
2019-01-21T20:42:45.731Z,-2.70
2019-01-21T20:45:14.625Z,-2.70
2019-01-21T20:47:42.694Z,-2.70
2019-01-21T20:50:12.307Z,-2.60
2019-01-21T20:52:40.131Z,-2.70
2019-01-21T20:55:08.149Z,-2.70
2019-01-21T20:57:35.974Z,-2.70
2019-01-21T21:00:05.524Z,-2.70
2019-01-21T21:02:33.418Z,-2.70
2019-01-21T21:05:01.195Z,-2.70
2019-01-21T21:07:29.046Z,-2.70
2019-01-21T21:09:56.867Z,-2.80
2019-01-21T21:12:25.976Z,-2.70
2019-01-21T21:14:53.830Z,-2.70
2019-01-21T21:17:21.667Z,-2.60
2019-01-21T21:19:49.713Z,-2.60
2019-01-21T21:22:21.130Z,-2.60
2019-01-21T21:24:47.034Z,-2.60
2019-01-21T21:27:14.845Z,-2.60
2019-01-21T21:29:43.000Z,-2.60
2019-01-21T21:32:10.839Z,-2.70
2019-01-21T21:34:38.624Z,-2.70
2019-01-21T21:37:06.531Z,-2.60
2019-01-21T21:39:34.418Z,-2.60
2019-01-21T21:42:02.250Z,-2.60
2019-01-21T21:44:30.390Z,-2.70
2019-01-21T21:46:58.265Z,-2.70
2019-01-21T21:49:26.054Z,-2.80
2019-01-21T21:51:54.039Z,-2.80
2019-01-21T21:54:21.809Z,-2.80
2019-01-21T21:56:49.621Z,-2.90
2019-01-21T21:59:17.497Z,-2.90
2019-01-21T22:01:45.408Z,-2.90
2019-01-21T22:04:13.302Z,-3.00
2019-01-21T22:06:41.188Z,-3.00
2019-01-21T22:09:09.042Z,-3.00
2019-01-21T22:11:36.889Z,-3.00
2019-01-21T22:14:05.344Z,-3.00
2019-01-21T22:16:33.214Z,-3.00
2019-01-21T22:19:00.986Z,-2.90
2019-01-21T22:21:28.832Z,-3.00
2019-01-21T22:23:56.680Z,-3.00
2019-01-21T22:26:24.983Z,-3.00
2019-01-21T22:28:52.823Z,-3.00
2019-01-21T22:31:20.777Z,-3.10
2019-01-21T22:33:48.566Z,-3.10
2019-01-21T22:36:16.405Z,-3.20
2019-01-21T22:38:44.302Z,-3.30
2019-01-21T22:41:12.340Z,-3.30
2019-01-21T22:43:40.233Z,-3.40
2019-01-21T22:46:08.266Z,-3.40
2019-01-21T22:48:36.067Z,-3.40
2019-01-21T22:51:03.905Z,-3.40
2019-01-21T22:53:31.735Z,-3.50
2019-01-21T22:55:59.577Z,-3.50
2019-01-21T22:58:27.391Z,-3.50
2019-01-21T23:00:57.569Z,-3.60
2019-01-21T23:03:26.131Z,-3.60
2019-01-21T23:05:54.082Z,-3.60
2019-01-21T23:08:22.145Z,-3.70
2019-01-21T23:10:49.918Z,-3.70
2019-01-21T23:13:17.785Z,-3.70
2019-01-21T23:15:45.573Z,-3.80
2019-01-21T23:18:13.479Z,-3.80
2019-01-21T23:20:41.315Z,-3.80
2019-01-21T23:23:09.662Z,-3.80
2019-01-21T23:25:37.458Z,-3.80
2019-01-21T23:28:05.338Z,-3.80
2019-01-21T23:30:33.162Z,-3.90
2019-01-21T23:33:00.966Z,-3.80
2019-01-21T23:35:28.823Z,-3.90
2019-01-21T23:37:56.613Z,-3.90
2019-01-21T23:40:24.551Z,-3.80
2019-01-21T23:42:52.438Z,-3.80
2019-01-21T23:45:20.405Z,-3.80
2019-01-21T23:47:48.263Z,-3.90
2019-01-21T23:50:16.515Z,-3.90
2019-01-21T23:52:44.413Z,-3.90
2019-01-21T23:55:12.445Z,-3.80
2019-01-21T23:57:40.245Z,-3.90
